createdAt,value
2022-08-08T00:03:55.763Z,41.10
2022-08-08T00:10:11.479Z,41.40
2022-08-08T00:16:25.301Z,42.10
2022-08-08T00:22:40.391Z,42.10
2022-08-08T00:28:57.206Z,41.60
2022-08-08T00:35:42.615Z,41.40
2022-08-08T00:42:36.671Z,41.30
2022-08-08T00:49:22.849Z,41.30
2022-08-08T00:55:59.087Z,42.40
2022-08-08T01:03:18.218Z,41.40
2022-08-08T01:09:36.159Z,41.20
2022-08-08T01:23:03.150Z,41.00
2022-08-08T01:30:07.142Z,41.00
2022-08-08T01:37:02.107Z,40.40
2022-08-08T01:43:20.911Z,39.70
2022-08-08T01:49:39.230Z,39.80
2022-08-08T01:56:27.602Z,39.70
2022-08-08T02:02:22.931Z,39.30
2022-08-08T02:08:34.066Z,38.90
2022-08-08T02:14:50.042Z,39.10
2022-08-08T02:21:21.592Z,38.90
2022-08-08T02:27:38.845Z,39.10
2022-08-08T02:34:08.386Z,39.80
2022-08-08T02:40:12.662Z,40.40
2022-08-08T02:46:53.574Z,40.20
2022-08-08T02:53:18.082Z,39.70
2022-08-08T03:00:30.892Z,39.20
2022-08-08T03:06:37.645Z,39.40
2022-08-08T03:13:34.129Z,39.60
2022-08-08T03:20:10.361Z,40.00
2022-08-08T03:26:22.909Z,40.70
2022-08-08T03:32:59.998Z,41.50
2022-08-08T03:39:15.476Z,43.50
2022-08-08T03:46:06.289Z,42.50
2022-08-08T03:51:51.561Z,42.80
2022-08-08T03:58:33.653Z,41.90
2022-08-08T04:04:11.360Z,41.50
2022-08-08T04:10:32.365Z,41.10
2022-08-08T04:16:43.940Z,40.50
2022-08-08T04:22:59.450Z,40.00
2022-08-08T04:29:15.115Z,39.60
2022-08-08T04:35:30.846Z,39.30
2022-08-08T04:41:43.342Z,39.20
2022-08-08T04:47:57.593Z,38.90
2022-08-08T04:54:38.977Z,38.60
2022-08-08T05:00:27.508Z,38.60
2022-08-08T05:06:41.663Z,38.90
2022-08-08T05:13:02.208Z,38.70
2022-08-08T05:20:11.496Z,39.00
2022-08-08T05:25:28.231Z,39.20
2022-08-08T05:32:04.850Z,39.40
2022-08-08T05:38:02.539Z,40.40
2022-08-08T05:44:17.999Z,40.20
2022-08-08T05:50:33.546Z,40.60
2022-08-08T05:56:48.335Z,40.90
2022-08-08T06:03:23.565Z,40.90
2022-08-08T06:09:59.012Z,41.90
2022-08-08T06:15:53.713Z,41.50
2022-08-08T06:22:32.221Z,41.80
2022-08-08T06:28:29.366Z,41.70
2022-08-08T06:34:38.353Z,41.80
2022-08-08T06:40:54.068Z,42.10
2022-08-08T06:47:09.144Z,42.50
2022-08-08T06:53:20.923Z,41.60
2022-08-08T06:59:49.138Z,41.40
2022-08-08T07:06:01.836Z,40.80
2022-08-08T07:12:03.554Z,40.30
2022-08-08T07:18:36.663Z,39.80
2022-08-08T07:24:35.751Z,39.40
2022-08-08T07:30:48.135Z,39.10
2022-08-08T07:37:11.800Z,38.90
2022-08-08T07:43:17.732Z,38.70
2022-08-08T07:49:33.466Z,38.40
2022-08-08T07:55:46.079Z,38.70
2022-08-08T08:02:33.667Z,38.70
2022-08-08T08:08:21.403Z,39.00
2022-08-08T08:14:39.077Z,39.20
2022-08-08T08:20:53.869Z,39.30
2022-08-08T08:27:09.307Z,39.30
2022-08-08T08:33:21.883Z,39.50
2022-08-08T08:39:59.793Z,40.70
2022-08-08T08:45:57.307Z,40.20
2022-08-08T08:52:09.408Z,40.70
2022-08-08T08:58:30.357Z,40.90
2022-08-08T09:04:49.719Z,41.10
2022-08-08T09:11:00.743Z,41.70
2022-08-08T09:17:18.799Z,41.50
2022-08-08T09:23:37.958Z,41.70
2022-08-08T09:29:52.499Z,41.50
2022-08-08T09:36:03.236Z,41.90
2022-08-08T09:42:22.301Z,42.00
2022-08-08T09:48:38.810Z,41.70
2022-08-08T09:54:49.767Z,41.90
2022-08-08T10:01:03.173Z,41.80
2022-08-08T10:07:18.919Z,42.60
2022-08-08T10:13:35.608Z,41.80
2022-08-08T10:19:57.745Z,41.20
2022-08-08T10:26:03.239Z,40.70
2022-08-08T10:32:34.466Z,40.10
2022-08-08T10:38:48.624Z,39.60
2022-08-08T10:45:09.252Z,39.10
2022-08-08T10:51:24.052Z,39.00
2022-08-08T10:57:49.655Z,38.50
2022-08-08T11:04:02.242Z,38.20
2022-08-08T11:10:12.092Z,38.10
2022-08-08T11:16:33.144Z,38.60
2022-08-08T11:22:46.308Z,38.70
2022-08-08T11:28:57.876Z,38.70
2022-08-08T11:35:27.138Z,39.20
2022-08-08T11:41:28.138Z,39.80
2022-08-08T11:48:02.534Z,39.40
2022-08-08T11:53:59.203Z,39.90
2022-08-08T12:00:10.479Z,40.50
2022-08-08T12:06:24.939Z,40.70
2022-08-08T12:12:41.388Z,40.90
2022-08-08T12:18:55.967Z,40.60
2022-08-08T12:25:11.402Z,40.60
2022-08-08T12:31:23.157Z,40.60
2022-08-08T12:37:40.726Z,41.20
2022-08-08T12:44:00.051Z,41.20
2022-08-08T12:50:09.117Z,41.20
2022-08-08T12:56:24.243Z,41.20
2022-08-08T13:02:36.127Z,40.30
2022-08-08T13:08:56.368Z,40.00
2022-08-08T13:15:11.955Z,39.50
2022-08-08T13:21:36.400Z,39.50
2022-08-08T13:27:42.595Z,39.00
2022-08-08T13:33:56.558Z,38.80
2022-08-08T13:40:18.017Z,38.50
2022-08-08T13:46:29.085Z,38.30
2022-08-08T13:52:39.095Z,38.10
2022-08-08T13:59:02.418Z,38.10
2022-08-08T14:05:22.114Z,38.10
2022-08-08T14:11:35.150Z,37.90
2022-08-08T14:17:58.533Z,38.90
2022-08-08T14:24:09.604Z,38.10
2022-08-08T14:30:23.701Z,38.20
2022-08-08T14:36:53.530Z,38.10
2022-08-08T14:43:01.745Z,39.10
2022-08-08T14:49:32.207Z,39.30
2022-08-08T14:55:41.794Z,39.30
2022-08-08T15:01:55.505Z,39.20
2022-08-08T15:08:21.792Z,39.30
2022-08-08T15:14:27.360Z,39.60
2022-08-08T15:20:44.372Z,39.30
2022-08-08T15:27:11.934Z,39.10
2022-08-08T15:33:35.575Z,39.80
2022-08-08T15:39:38.044Z,40.70
2022-08-08T15:45:57.253Z,41.20
2022-08-08T15:52:10.946Z,40.90
2022-08-08T15:58:28.309Z,40.60
2022-08-08T16:04:42.314Z,42.10
2022-08-08T16:13:11.643Z,42.50
2022-08-08T16:17:13.440Z,42.00
2022-08-08T16:23:28.340Z,43.80
2022-08-08T16:30:13.918Z,44.10
2022-08-08T16:35:59.333Z,44.70
2022-08-08T16:42:18.710Z,43.60
2022-08-08T16:48:32.080Z,42.50
2022-08-08T16:55:04.271Z,42.20
2022-08-08T17:01:00.289Z,42.40
2022-08-08T17:07:14.194Z,42.30
2022-08-08T17:13:50.117Z,43.00
2022-08-08T17:19:44.433Z,42.70
2022-08-08T17:26:05.052Z,42.50
2022-08-08T17:32:15.729Z,41.50
2022-08-08T17:38:30.945Z,41.10
2022-08-08T17:44:45.135Z,40.80
2022-08-08T17:50:58.348Z,40.30
2022-08-08T17:57:12.063Z,40.00
2022-08-08T18:03:27.508Z,40.60
2022-08-08T18:09:40.403Z,40.30
2022-08-08T18:16:04.160Z,41.00
2022-08-08T18:22:37.547Z,41.00
2022-08-08T18:28:26.440Z,41.00
2022-08-08T18:34:40.441Z,40.70
2022-08-08T18:40:55.639Z,40.50
2022-08-08T18:47:09.854Z,40.20
2022-08-08T18:53:24.695Z,41.20
2022-08-08T18:59:38.481Z,40.80
2022-08-08T19:05:51.664Z,40.60
2022-08-08T19:12:09.862Z,40.60
2022-08-08T19:18:32.662Z,41.00
2022-08-08T19:25:02.636Z,40.30
2022-08-08T19:31:04.243Z,40.20
2022-08-08T19:37:06.827Z,40.20
2022-08-08T19:43:19.213Z,40.00
2022-08-08T19:49:36.692Z,39.90
2022-08-08T19:55:51.623Z,40.40
2022-08-08T20:02:06.206Z,40.10
2022-08-08T20:08:39.459Z,40.00
2022-08-08T20:14:53.358Z,40.00
2022-08-08T20:20:52.625Z,40.20
2022-08-08T20:27:07.629Z,40.30
2022-08-08T20:39:39.295Z,41.70
2022-08-08T20:45:54.752Z,41.50
2022-08-08T20:52:02.434Z,40.80
2022-08-08T20:58:22.992Z,40.80
2022-08-08T21:04:34.798Z,41.10
2022-08-08T21:10:50.359Z,41.00
2022-08-08T21:17:01.488Z,41.10
2022-08-08T21:23:18.274Z,40.90
2022-08-08T21:30:05.413Z,40.50
2022-08-08T21:36:16.325Z,40.30
2022-08-08T21:42:02.627Z,39.80
2022-08-08T21:48:19.654Z,39.40
2022-08-08T21:55:02.423Z,39.00
2022-08-08T22:00:48.341Z,39.30
2022-08-08T22:07:03.774Z,39.40
2022-08-08T22:13:21.458Z,39.50
2022-08-08T22:20:10.723Z,39.70
2022-08-08T22:26:27.899Z,39.90
2022-08-08T22:32:02.631Z,40.00
2022-08-08T22:38:14.387Z,40.80
2022-08-08T22:44:30.001Z,40.60
2022-08-08T22:50:46.469Z,40.00
2022-08-08T22:57:01.906Z,39.80
2022-08-08T23:03:18.677Z,40.00
2022-08-08T23:09:39.220Z,39.90
2022-08-08T23:16:39.107Z,40.40
2022-08-08T23:22:01.668Z,40.40
2022-08-08T23:28:17.745Z,41.30
2022-08-08T23:34:29.462Z,43.30
2022-08-08T23:40:44.046Z,43.10
2022-08-08T23:49:07.964Z,43.30
2022-08-08T23:53:14.455Z,43.00
2022-08-08T23:59:28.424Z,42.70
